Time;durP1;ratioP1;P1;durP2;ratioP2;P2;SDS_P1;SDS_P2;PMS_P1;PMS_P2;Temp;Humidity;BMP_temperature;BMP_pressure;BME280_temperature;BME280_humidity;BME280_pressure;Samples;Min_cycle;Max_cycle;Signal;HPM_P1;HPM_P2
2023/12/02 00:00:45;;;;;;;35.92;19.27;;;;;;;0.75;75.26;101135.66;7390449;19;20022;-69
2023/12/02 00:03:13;;;;;;;35.83;18.60;;;;;;;0.84;75.26;101128.44;7393570;19;20026;-69
2023/12/02 00:05:41;;;;;;;35.05;19.25;;;;;;;0.84;75.10;101133.66;7393403;19;20018;-66
2023/12/02 00:08:08;;;;;;;34.60;18.60;;;;;;;0.89;74.97;101126.56;7393638;19;20063;-68
2023/12/02 00:10:36;;;;;;;36.08;18.38;;;;;;;0.90;75.10;101124.81;7391914;19;20399;-68
2023/12/02 00:13:04;;;;;;;36.10;19.08;;;;;;;0.87;75.65;101130.94;7391410;19;20018;-68
2023/12/02 00:15:32;;;;;;;33.38;17.73;;;;;;;0.84;75.65;101131.06;7391609;19;20429;-67
2023/12/02 00:17:59;;;;;;;35.17;19.30;;;;;;;0.88;76.06;101118.78;7393174;19;20022;-67
2023/12/02 00:20:28;;;;;;;38.58;20.55;;;;;;;0.86;75.99;101125.78;7391837;19;20357;-67
2023/12/02 00:22:56;;;;;;;41.13;20.85;;;;;;;0.81;76.20;101122.47;7391922;19;20093;-67
2023/12/02 00:25:24;;;;;;;38.80;20.70;;;;;;;0.79;76.43;101122.47;7393244;19;20371;-69
2023/12/02 00:27:51;;;;;;;39.08;20.83;;;;;;;0.84;76.56;101123.25;7392691;19;20384;-69
2023/12/02 00:30:19;;;;;;;37.25;19.55;;;;;;;0.98;76.02;101115.84;7391779;19;20023;-69
2023/12/02 00:32:47;;;;;;;35.05;19.02;;;;;;;0.94;75.99;101119.44;7392422;19;20624;-69
2023/12/02 00:35:15;;;;;;;37.47;18.80;;;;;;;0.93;76.07;101112.53;7391445;19;20018;-69
2023/12/02 00:37:43;;;;;;;32.30;18.27;;;;;;;0.93;76.17;101112.53;7392967;19;20022;-69
2023/12/02 00:40:11;;;;;;;34.33;18.52;;;;;;;0.88;76.31;101114.44;7391426;19;20055;-69
2023/12/02 00:42:38;;;;;;;33.78;19.38;;;;;;;0.88;76.18;101124.00;7392252;19;20086;-69
2023/12/02 00:45:07;;;;;;;32.50;17.35;;;;;;;0.87;76.56;101117.06;7390676;19;20018;-69
2023/12/02 00:47:35;;;;;;;32.70;18.15;;;;;;;0.89;76.45;101115.28;7392926;19;20031;-68
2023/12/02 00:50:03;;;;;;;32.85;17.98;;;;;;;0.91;76.37;101116.06;7389283;19;20018;-68
2023/12/02 00:52:31;;;;;;;35.28;18.00;;;;;;;0.93;76.45;101103.88;7392132;19;20023;-68
2023/12/02 00:54:59;;;;;;;33.58;18.85;;;;;;;0.88;76.58;101109.22;7390757;19;20022;-68
2023/12/02 00:57:27;;;;;;;39.97;19.98;;;;;;;0.89;76.90;101100.50;7392296;19;20022;-68
2023/12/02 00:59:55;;;;;;;40.55;20.92;;;;;;;0.89;77.54;101104.84;7390877;19;20022;-68
2023/12/02 01:02:23;;;;;;;42.08;21.45;;;;;;;0.83;77.75;101100.66;7392015;19;20019;-68
2023/12/02 01:04:51;;;;;;;41.13;22.58;;;;;;;0.88;78.04;101103.16;7391719;19;20042;-68
2023/12/02 01:07:18;;;;;;;45.58;22.55;;;;;;;0.93;77.92;101104.72;7391959;19;20492;-68
2023/12/02 01:09:46;;;;;;;43.42;23.58;;;;;;;0.93;77.75;101106.47;7390979;19;20030;-68
2023/12/02 01:12:14;;;;;;;41.22;22.13;;;;;;;0.89;78.00;101100.50;7392229;19;20022;-69
2023/12/02 01:14:42;;;;;;;43.38;22.45;;;;;;;0.92;77.94;101107.38;7391119;19;20022;-69
2023/12/02 01:17:10;;;;;;;44.28;22.77;;;;;;;0.89;78.19;101110.91;7391521;19;20025;-69
2023/12/02 01:19:37;;;;;;;45.22;22.75;;;;;;;0.84;78.00;101107.59;7390969;19;20030;-69
2023/12/02 01:22:05;;;;;;;46.20;23.75;;;;;;;0.90;78.20;101109.16;7390088;19;20011;-69
2023/12/02 01:24:33;;;;;;;43.90;22.02;;;;;;;0.91;78.19;101106.50;7394384;19;20023;-69
2023/12/02 01:27:01;;;;;;;43.88;22.38;;;;;;;0.98;78.00;101108.03;7397682;19;20098;-68
2023/12/02 01:29:29;;;;;;;43.00;21.58;;;;;;;1.00;77.93;101112.38;7399266;19;20018;-68
2023/12/02 01:31:56;;;;;;;42.17;22.40;;;;;;;1.01;78.20;101104.50;7396987;19;20015;-68
2023/12/02 01:34:25;;;;;;;45.50;22.65;;;;;;;1.01;78.39;101108.88;7397654;19;20487;-68
2023/12/02 01:36:52;;;;;;;45.08;23.35;;;;;;;0.99;78.30;101106.28;7399025;19;20035;-67
2023/12/02 01:39:20;;;;;;;47.28;23.77;;;;;;;1.03;78.03;101109.66;7398934;19;20026;-67
2023/12/02 01:41:48;;;;;;;42.25;23.15;;;;;;;1.07;78.30;101119.97;7395189;19;20074;-67
2023/12/02 01:44:16;;;;;;;46.88;23.17;;;;;;;1.12;78.24;101106.81;7398304;19;20047;-67
2023/12/02 01:46:44;;;;;;;44.55;23.83;;;;;;;1.18;78.11;101120.53;7398930;19;20019;-67
2023/12/02 01:49:12;;;;;;;43.67;22.17;;;;;;;1.11;78.30;101112.94;7398992;19;20039;-67
2023/12/02 01:51:40;;;;;;;41.25;21.83;;;;;;;1.13;77.99;101106.75;7395081;19;20015;-66
2023/12/02 01:54:08;;;;;;;41.17;21.10;;;;;;;1.15;77.80;101106.72;7397535;19;20518;-68
2023/12/02 01:56:36;;;;;;;42.53;21.25;;;;;;;1.18;78.14;101106.59;7398278;19;20022;-69
2023/12/02 01:59:04;;;;;;;44.33;21.83;;;;;;;1.16;77.62;101103.22;7398348;19;20015;-68
2023/12/02 02:01:32;;;;;;;41.45;22.38;;;;;;;1.16;78.14;101106.66;7394875;19;20014;-68
2023/12/02 02:03:59;;;;;;;39.85;21.77;;;;;;;1.17;77.77;101097.94;7398067;19;20026;-68
2023/12/02 02:06:28;;;;;;;36.88;19.95;;;;;;;1.14;77.96;101108.44;7398591;19;20377;-69
2023/12/02 02:08:55;;;;;;;40.70;20.98;;;;;;;1.23;77.78;101106.50;7398203;19;20095;-70
2023/12/02 02:11:23;;;;;;;42.97;22.15;;;;;;;1.18;78.06;101106.59;7394972;19;20396;-70
2023/12/02 02:13:51;;;;;;;45.17;23.58;;;;;;;1.20;77.89;101104.81;7395955;19;20018;-70
2023/12/02 02:16:19;;;;;;;40.70;22.95;;;;;;;1.18;77.80;101096.19;7397688;19;20498;-70
2023/12/02 02:18:47;;;;;;;40.75;22.77;;;;;;;1.14;78.15;101108.44;7395795;19;20043;-70
2023/12/02 02:21:20;;;;;;;42.90;22.90;;;;;;;1.16;78.08;101103.22;7394484;19;20015;-70
2023/12/02 02:23:48;;;;;;;40.60;21.35;;;;;;;1.10;78.34;101104.22;7395598;19;20030;-70
2023/12/02 02:26:15;;;;;;;42.80;22.27;;;;;;;1.17;78.26;101100.53;7395839;19;20022;-70
2023/12/02 02:28:43;;;;;;;40.78;21.80;;;;;;;1.14;78.19;101107.59;7397262;19;20011;-70
2023/12/02 02:31:11;;;;;;;39.05;21.25;;;;;;;1.11;78.18;101105.94;7394511;19;20341;-70
2023/12/02 02:33:39;;;;;;;33.97;19.33;;;;;;;1.13;78.33;101109.34;7397082;19;20082;-70
2023/12/02 02:36:07;;;;;;;35.67;20.30;;;;;;;1.21;78.10;101098.69;7393211;19;20022;-70
2023/12/02 02:38:35;;;;;;;35.83;18.80;;;;;;;1.21;78.01;101107.38;7396829;19;20024;-70
2023/12/02 02:41:04;;;;;;;33.03;19.00;;;;;;;1.21;77.88;101109.97;7394618;19;20022;-67
2023/12/02 02:43:32;;;;;;;39.97;20.00;;;;;;;1.11;78.11;101100.75;7396992;19;20043;-67
2023/12/02 02:45:59;;;;;;;35.28;19.60;;;;;;;1.12;78.39;101101.59;7396781;19;20015;-66
2023/12/02 02:48:27;;;;;;;35.85;18.58;;;;;;;1.11;78.36;101103.34;7397376;19;20018;-66
2023/12/02 02:50:55;;;;;;;36.88;19.67;;;;;;;1.08;78.50;101106.03;7394363;19;20019;-66
2023/12/02 02:53:23;;;;;;;35.25;19.58;;;;;;;1.07;78.63;101111.28;7396514;19;20479;-66
2023/12/02 02:55:51;;;;;;;36.08;19.40;;;;;;;1.17;78.34;101099.69;7395165;19;20018;-66
2023/12/02 02:58:19;;;;;;;35.75;19.40;;;;;;;1.12;78.46;101110.25;7395554;19;20014;-66
2023/12/02 03:00:46;;;;;;;36.15;18.63;;;;;;;1.15;78.51;101107.56;7394393;19;20538;-66
2023/12/02 03:03:14;;;;;;;35.30;19.17;;;;;;;1.15;78.49;101106.72;7397166;19;20010;-66
2023/12/02 03:05:42;;;;;;;34.88;19.30;;;;;;;1.14;78.41;101108.44;7397142;19;20082;-66
2023/12/02 03:08:10;;;;;;;37.33;19.83;;;;;;;1.08;78.95;101110.41;7396553;19;20010;-66
2023/12/02 03:10:38;;;;;;;34.35;18.38;;;;;;;1.18;78.47;101110.09;7394217;19;20015;-66
2023/12/02 03:13:06;;;;;;;36.67;20.05;;;;;;;1.25;78.10;101118.56;7395704;19;20022;-66
2023/12/02 03:15:34;;;;;;;35.47;19.15;;;;;;;1.21;78.30;101117.81;7392670;19;20362;-66
2023/12/02 03:18:02;;;;;;;35.60;19.27;;;;;;;1.27;78.39;101113.34;7394266;19;20025;-66
2023/12/02 03:20:30;;;;;;;33.97;18.45;;;;;;;1.24;78.33;101105.59;7393683;19;20043;-66
2023/12/02 03:22:58;;;;;;;35.38;19.17;;;;;;;1.24;78.23;101111.66;7395095;19;20025;-67
2023/12/02 03:25:25;;;;;;;35.25;19.42;;;;;;;1.20;78.47;101116.09;7394985;19;20015;-69
2023/12/02 03:27:53;;;;;;;34.97;18.98;;;;;;;1.25;78.46;101113.34;7393646;19;20368;-67
2023/12/02 03:30:21;;;;;;;36.75;19.95;;;;;;;1.21;78.77;101114.34;7395160;19;20015;-67
2023/12/02 03:32:50;;;;;;;37.38;19.58;;;;;;;1.21;78.73;101111.75;7396598;19;20036;-67
2023/12/02 03:35:18;;;;;;;35.53;18.88;;;;;;;1.26;78.63;101114.22;7396315;19;20027;-66
2023/12/02 03:37:45;;;;;;;36.90;18.90;;;;;;;1.29;78.52;101103.69;7394698;19;20010;-66
2023/12/02 03:40:13;;;;;;;34.75;18.30;;;;;;;1.25;78.54;101118.56;7393248;19;20026;-68
2023/12/02 03:42:41;;;;;;;38.10;20.73;;;;;;;1.20;78.79;101110.88;7395031;19;20015;-67
2023/12/02 03:45:09;;;;;;;35.15;18.88;;;;;;;1.23;78.66;101115.19;7394823;19;20023;-67
2023/12/02 03:47:37;;;;;;;36.88;19.27;;;;;;;1.23;78.87;101109.97;7392654;19;20412;-66
2023/12/02 03:50:06;;;;;;;33.25;18.00;;;;;;;1.33;78.49;101110.53;7393426;19;20018;-68
2023/12/02 03:52:34;;;;;;;34.70;18.88;;;;;;;1.32;78.57;101119.25;7394188;19;20022;-67
2023/12/02 03:55:02;;;;;;;34.58;18.45;;;;;;;1.25;78.48;101108.13;7394514;19;20026;-65
2023/12/02 03:57:30;;;;;;;33.80;19.02;;;;;;;1.30;78.66;101115.81;7393850;19;20385;-65
2023/12/02 03:59:58;;;;;;;32.92;17.88;;;;;;;1.26;78.49;101117.69;7391403;19;20414;-66
2023/12/02 04:02:26;;;;;;;36.92;18.73;;;;;;;1.27;78.60;101119.41;7392579;19;20026;-67
2023/12/02 04:04:54;;;;;;;32.75;16.98;;;;;;;1.34;78.47;101125.31;7394342;19;20019;-67
2023/12/02 04:07:21;;;;;;;33.80;18.55;;;;;;;1.35;78.46;101121.78;7393506;19;20022;-66
2023/12/02 04:09:49;;;;;;;32.45;18.00;;;;;;;1.31;78.83;101122.78;7390848;19;20039;-67
2023/12/02 04:12:18;;;;;;;33.47;18.23;;;;;;;1.27;78.71;101121.16;7392156;19;20022;-67
2023/12/02 04:14:46;;;;;;;32.58;17.67;;;;;;;1.32;78.67;101122.72;7393712;19;20054;-67
2023/12/02 04:17:13;;;;;;;32.53;17.50;;;;;;;1.39;78.51;101126.00;7393987;19;20109;-66
2023/12/02 04:19:42;;;;;;;33.17;18.30;;;;;;;1.35;78.33;101130.47;7392198;19;20018;-66
2023/12/02 04:22:09;;;;;;;32.40;18.52;;;;;;;1.30;78.26;101128.88;7391965;19;20022;-68
2023/12/02 04:24:37;;;;;;;33.30;17.95;;;;;;;1.26;79.01;101132.47;7392253;19;20018;-70
2023/12/02 04:27:07;;;;;;;33.30;17.45;;;;;;;1.25;78.72;101130.78;7393517;19;20781;-70
2023/12/02 04:29:40;;;;;;;33.10;17.15;;;;;;;1.23;78.97;101133.44;7391656;19;20025;-69
2023/12/02 04:32:08;;;;;;;32.42;17.70;;;;;;;1.28;79.10;101128.94;7392850;19;20018;-70
2023/12/02 04:34:36;;;;;;;33.35;17.85;;;;;;;1.37;78.81;101140.84;7392756;19;20019;-69
2023/12/02 04:37:07;;;;;;;32.55;18.02;;;;;;;1.30;78.90;101140.19;7390982;19;20495;-69
2023/12/02 04:39:35;;;;;;;33.63;18.50;;;;;;;1.32;78.95;101138.38;7392848;19;20019;-66
2023/12/02 04:42:03;;;;;;;32.75;18.38;;;;;;;1.33;79.03;101144.44;7392774;19;20028;-65
2023/12/02 04:44:31;;;;;;;34.88;19.08;;;;;;;1.32;79.24;101137.50;7392425;19;20019;-66
2023/12/02 04:46:59;;;;;;;35.58;18.90;;;;;;;1.36;79.09;101142.59;7392356;19;20089;-66
2023/12/02 04:49:26;;;;;;;34.83;19.05;;;;;;;1.43;78.98;101141.53;7391989;19;20031;-66
2023/12/02 04:51:54;;;;;;;33.50;18.67;;;;;;;1.38;78.92;101137.34;7392131;19;20022;-68
2023/12/02 04:54:22;;;;;;;33.90;18.85;;;;;;;1.34;79.06;101152.25;7392461;19;20014;-66
2023/12/02 04:56:50;;;;;;;33.67;19.23;;;;;;;1.39;79.26;101139.06;7391086;19;20391;-67
2023/12/02 04:59:18;;;;;;;33.20;19.30;;;;;;;1.36;79.30;101145.22;7391139;19;20026;-67
2023/12/02 05:01:45;;;;;;;33.42;18.05;;;;;;;1.39;78.88;101144.28;7389478;19;20381;-66
2023/12/02 05:04:13;;;;;;;35.08;19.13;;;;;;;1.37;79.27;101146.91;7392065;19;20490;-66
2023/12/02 05:06:41;;;;;;;35.78;19.60;;;;;;;1.44;79.00;101144.97;7392192;19;20018;-66
2023/12/02 05:09:09;;;;;;;34.63;18.55;;;;;;;1.40;79.16;101145.97;7392375;19;20074;-66
2023/12/02 05:11:40;;;;;;;37.15;20.17;;;;;;;1.38;79.45;101145.19;7389662;19;20027;-66
2023/12/02 05:14:08;;;;;;;36.63;19.40;;;;;;;1.43;79.00;101151.09;7392205;19;20022;-66
2023/12/02 05:16:35;;;;;;;36.17;19.63;;;;;;;1.42;79.11;101149.41;7388906;19;20018;-67
2023/12/02 05:19:03;;;;;;;37.22;19.80;;;;;;;1.51;78.97;101154.34;7392285;19;20015;-67
2023/12/02 05:21:31;;;;;;;34.40;18.52;;;;;;;1.52;79.00;101158.66;7389667;19;20015;-67
2023/12/02 05:24:00;;;;;;;35.05;19.80;;;;;;;1.45;79.51;101157.13;7389986;19;20025;-68
2023/12/02 05:26:28;;;;;;;38.42;21.35;;;;;;;1.44;79.46;101158.88;7391617;19;20026;-67
2023/12/02 05:28:56;;;;;;;36.40;19.52;;;;;;;1.47;79.33;101173.59;7391339;19;20024;-67
2023/12/02 05:31:24;;;;;;;38.03;20.10;;;;;;;1.43;79.67;101158.94;7389000;19;20026;-67
2023/12/02 05:33:52;;;;;;;33.20;18.90;;;;;;;1.45;79.58;101157.13;7390063;19;20026;-68
2023/12/02 05:36:20;;;;;;;36.00;19.27;;;;;;;1.54;79.13;101162.09;7388377;19;20015;-68
2023/12/02 05:38:48;;;;;;;36.05;20.15;;;;;;;1.43;79.71;101162.38;7390835;19;20018;-67
2023/12/02 05:41:15;;;;;;;37.22;19.70;;;;;;;1.54;79.59;101171.66;7388581;19;20014;-68
2023/12/02 05:43:43;;;;;;;32.92;19.10;;;;;;;1.54;79.40;101158.63;7390979;19;20082;-69
2023/12/02 05:46:17;;;;;;;37.17;19.90;;;;;;;1.53;79.65;101162.13;7390959;19;20031;-67
2023/12/02 05:48:45;;;;;;;;;;;;;;;1.37;79.85;101157.34;7391376;19;20373;-66
2023/12/02 05:51:13;;;;;;;36.95;19.88;;;;;;;1.35;80.11;101158.31;7388358;19;19919;-65
2023/12/02 05:53:41;;;;;;;36.67;20.10;;;;;;;1.38;79.83;101158.22;7390577;19;20018;-64
2023/12/02 05:56:09;;;;;;;35.10;19.75;;;;;;;1.54;79.52;101156.88;7388229;19;20089;-66
2023/12/02 05:58:37;;;;;;;40.75;20.23;;;;;;;1.58;79.00;101155.03;7390957;19;20419;-66
2023/12/02 06:01:05;;;;;;;37.08;20.75;;;;;;;1.31;79.37;101157.53;7388713;19;20011;-67
2023/12/02 06:03:33;;;;;;;40.20;20.75;;;;;;;1.32;79.97;101154.03;7390701;19;20011;-66
2023/12/02 06:06:01;;;;;;;35.70;19.20;;;;;;;1.52;79.18;101174.31;7390086;19;20014;-66
2023/12/02 06:08:29;;;;;;;38.53;20.73;;;;;;;1.55;79.34;101170.75;7390360;19;20027;-66
2023/12/02 06:10:56;;;;;;;34.88;19.00;;;;;;;1.54;79.54;101162.09;7388987;19;20015;-66
2023/12/02 06:13:24;;;;;;;38.83;20.20;;;;;;;1.53;79.40;101169.97;7397672;19;20022;-66
2023/12/02 06:15:52;;;;;;;35.38;20.67;;;;;;;1.53;79.64;101169.97;7396851;19;20014;-66
2023/12/02 06:18:20;;;;;;;36.22;19.48;;;;;;;1.51;79.41;101166.53;7397763;19;20097;-66
2023/12/02 06:20:47;;;;;;;36.10;19.67;;;;;;;1.49;79.85;101174.41;7395244;19;20018;-66
2023/12/02 06:23:15;;;;;;;36.47;20.38;;;;;;;1.55;79.47;101166.38;7397538;19;20018;-66
2023/12/02 06:25:43;;;;;;;38.47;20.50;;;;;;;1.58;79.25;101170.69;7396092;19;20022;-65
2023/12/02 06:28:11;;;;;;;39.85;21.83;;;;;;;1.56;79.26;101175.06;7397284;19;20010;-65
2023/12/02 06:30:39;;;;;;;38.40;20.50;;;;;;;1.52;79.23;101174.31;7394641;19;20019;-65
2023/12/02 06:33:07;;;;;;;42.83;21.90;;;;;;;1.48;79.38;101167.47;7396531;19;20022;-65
2023/12/02 06:35:35;;;;;;;39.42;21.48;;;;;;;1.47;79.85;101171.00;7396658;19;20014;-65
2023/12/02 06:38:03;;;;;;;40.30;21.85;;;;;;;1.56;79.20;101175.06;7397364;19;20026;-66
2023/12/02 06:40:30;;;;;;;41.10;20.88;;;;;;;1.58;79.44;101175.91;7395297;19;20479;-66
2023/12/02 06:42:58;;;;;;;37.15;20.52;;;;;;;1.62;78.98;101180.97;7396772;19;20018;-65
2023/12/02 06:45:26;;;;;;;39.13;21.67;;;;;;;1.54;79.41;101179.50;7396330;19;20014;-66
2023/12/02 06:47:54;;;;;;;36.55;20.40;;;;;;;1.58;79.63;101195.00;7396551;19;20039;-65
2023/12/02 06:50:22;;;;;;;37.47;20.38;;;;;;;1.65;79.29;101191.31;7392210;19;20022;-65
2023/12/02 06:52:50;;;;;;;39.53;20.77;;;;;;;1.57;79.46;101189.84;7396459;19;20110;-65
2023/12/02 06:55:18;;;;;;;34.40;19.73;;;;;;;1.54;79.58;101193.41;7395728;19;20014;-65
2023/12/02 06:57:49;;;;;;;38.42;19.92;;;;;;;1.64;79.24;101194.84;7393547;19;20017;-65
2023/12/02 07:00:18;;;;;;;37.17;19.52;;;;;;;1.59;79.83;101196.72;7392324;19;20011;-65
2023/12/02 07:02:46;;;;;;;40.10;21.15;;;;;;;1.64;79.52;101193.97;7394694;19;20038;-66
2023/12/02 07:05:14;;;;;;;37.90;21.10;;;;;;;1.56;79.66;101198.56;7396311;19;20029;-65
2023/12/02 07:07:42;;;;;;;39.13;21.00;;;;;;;1.59;80.00;101201.94;7396375;19;20033;-65
2023/12/02 07:10:10;;;;;;;39.80;20.73;;;;;;;1.70;79.56;101199.88;7394628;19;20034;-65
2023/12/02 07:12:37;;;;;;;37.17;20.33;;;;;;;1.69;79.46;101207.75;7395285;19;20010;-65
2023/12/02 07:15:07;;;;;;;36.45;20.83;;;;;;;1.70;79.05;101204.25;7394078;19;20019;-65
2023/12/02 07:17:35;;;;;;;39.33;21.23;;;;;;;1.69;79.34;101211.22;7393398;19;20502;-65
2023/12/02 07:20:03;;;;;;;39.78;20.45;;;;;;;1.70;79.65;101218.13;7394031;19;20026;-65
2023/12/02 07:22:31;;;;;;;36.30;20.27;;;;;;;1.73;79.38;101225.03;7395550;19;20026;-66
2023/12/02 07:24:59;;;;;;;38.00;20.35;;;;;;;1.67;79.25;101230.41;7395106;19;20507;-66
2023/12/02 07:27:27;;;;;;;35.50;19.90;;;;;;;1.67;79.06;101230.41;7395009;19;20022;-65
2023/12/02 07:29:56;;;;;;;36.85;19.50;;;;;;;1.70;79.29;101232.94;7393795;19;20100;-65
2023/12/02 07:32:27;;;;;;;39.63;19.90;;;;;;;1.73;78.81;101230.25;7393428;19;20035;-66
2023/12/02 07:34:55;;;;;;;38.55;19.58;;;;;;;1.74;78.92;101239.78;7395056;19;20374;-66
2023/12/02 07:37:23;;;;;;;38.97;20.13;;;;;;;1.71;78.87;101238.13;7393031;19;20014;-65
2023/12/02 07:39:50;;;;;;;36.25;19.08;;;;;;;1.68;78.99;101243.44;7393821;19;20019;-65
2023/12/02 07:42:18;;;;;;;36.53;19.05;;;;;;;1.72;78.63;101244.22;7393516;19;20011;-65
2023/12/02 07:44:46;;;;;;;37.72;19.60;;;;;;;1.69;78.73;101247.75;7394298;19;20514;-65
2023/12/02 07:47:14;;;;;;;36.88;18.92;;;;;;;1.55;79.03;101252.50;7394347;19;20540;-65
2023/12/02 07:49:42;;;;;;;35.35;18.70;;;;;;;1.50;79.48;101253.56;7393356;19;20038;-65
2023/12/02 07:52:09;;;;;;;35.17;19.33;;;;;;;1.52;79.77;101246.53;7393975;19;20018;-65
2023/12/02 07:54:37;;;;;;;34.38;18.48;;;;;;;1.63;79.60;101247.06;7393818;19;20482;-65
2023/12/02 07:57:05;;;;;;;35.60;19.48;;;;;;;1.65;78.95;101256.59;7393087;19;20511;-66
2023/12/02 07:59:33;;;;;;;34.78;19.55;;;;;;;1.59;79.50;101254.13;7391838;19;20516;-66
2023/12/02 08:02:01;;;;;;;31.88;17.88;;;;;;;1.66;78.90;101258.28;7391920;19;20070;-66
2023/12/02 08:04:29;;;;;;;33.85;18.75;;;;;;;1.74;78.63;101257.22;7392250;19;20036;-66
2023/12/02 08:06:57;;;;;;;32.58;17.88;;;;;;;1.77;78.72;101262.34;7391940;19;20033;-66
2023/12/02 08:09:24;;;;;;;34.58;18.77;;;;;;;1.75;78.41;101254.53;7393851;19;20039;-66
2023/12/02 08:11:52;;;;;;;35.08;19.65;;;;;;;1.71;78.63;101258.16;7393254;19;20030;-67
2023/12/02 08:14:20;;;;;;;35.03;19.33;;;;;;;1.68;78.61;101263.47;7393985;19;20018;-66
2023/12/02 08:16:47;;;;;;;33.25;17.92;;;;;;;1.59;79.00;101267.19;7392960;19;20025;-66
2023/12/02 08:19:16;;;;;;;33.10;18.70;;;;;;;1.75;78.71;101272.81;7393087;19;20015;-66
2023/12/02 08:21:44;;;;;;;33.50;19.08;;;;;;;1.71;78.25;101271.19;7390201;19;20032;-66
2023/12/02 08:24:12;;;;;;;32.70;18.63;;;;;;;1.68;78.44;101274.78;7393081;19;20035;-66
2023/12/02 08:26:40;;;;;;;34.05;18.38;;;;;;;1.66;78.53;101273.94;7393145;19;20038;-66
2023/12/02 08:29:07;;;;;;;34.58;19.95;;;;;;;1.65;78.53;101274.84;7391662;19;20032;-66
2023/12/02 08:31:35;;;;;;;34.33;19.17;;;;;;;1.75;78.20;101282.41;7391114;19;20100;-66
2023/12/02 08:34:03;;;;;;;34.42;18.58;;;;;;;1.79;78.18;101290.09;7391213;19;20022;-66
2023/12/02 08:36:41;;;;;;;36.17;19.88;;;;;;;1.77;78.31;101288.47;7391381;19;20558;-66
2023/12/02 08:39:09;;;;;;;34.85;19.08;;;;;;;1.71;78.14;101290.31;7392985;19;20018;-66
2023/12/02 08:41:37;;;;;;;33.50;18.40;;;;;;;1.74;78.35;101291.16;7390727;19;20477;-66
2023/12/02 08:44:05;;;;;;;32.47;18.13;;;;;;;1.80;78.42;101299.69;7392774;19;20531;-66
2023/12/02 08:46:33;;;;;;;34.08;18.60;;;;;;;1.82;78.24;101303.06;7392796;19;20022;-67
2023/12/02 08:49:01;;;;;;;34.08;18.90;;;;;;;1.84;77.87;101300.44;7393041;19;20035;-66
2023/12/02 08:51:29;;;;;;;35.88;19.35;;;;;;;1.80;77.94;101301.44;7390532;19;20006;-66
2023/12/02 08:54:00;;;;;;;32.63;18.58;;;;;;;1.82;78.01;101310.06;7390731;19;20022;-66
2023/12/02 08:56:28;;;;;;;33.60;19.02;;;;;;;1.85;77.90;101308.22;7391865;19;20022;-66
2023/12/02 08:58:57;;;;;;;36.08;19.58;;;;;;;1.85;77.61;101309.97;7391896;19;20018;-67
2023/12/02 09:01:25;;;;;;;35.13;19.48;;;;;;;1.83;77.85;101309.16;7388507;19;20015;-67
2023/12/02 09:03:53;;;;;;;36.38;20.15;;;;;;;1.91;77.79;101305.44;7391951;19;20336;-67
2023/12/02 09:06:22;;;;;;;36.10;20.13;;;;;;;2.01;77.15;101308.63;7390375;19;20355;-66
2023/12/02 09:08:53;;;;;;;34.63;18.58;;;;;;;2.02;77.43;101312.94;7392229;19;20010;-66
2023/12/02 09:11:21;;;;;;;34.67;18.80;;;;;;;2.08;77.75;101315.38;7389624;19;20014;-67
2023/12/02 09:13:49;;;;;;;37.55;19.92;;;;;;;2.03;77.62;101309.44;7391784;19;20511;-67
2023/12/02 09:16:17;;;;;;;36.10;20.33;;;;;;;2.02;77.49;101320.78;7391773;19;20031;-67
2023/12/02 09:18:45;;;;;;;34.88;19.50;;;;;;;2.06;77.26;101314.59;7392241;19;20022;-66
2023/12/02 09:21:44;;;;;;;36.97;20.40;;;;;;;2.08;76.81;101319.75;7389497;19;20024;-66
2023/12/02 09:24:36;;;;;;;36.33;19.85;;;;;;;2.02;76.83;101325.16;7391850;19;20025;-66
2023/12/02 09:27:07;;;;;;;35.70;19.25;;;;;;;2.00;76.69;101324.34;7391461;19;20019;-66
2023/12/02 09:29:41;;;;;;;33.03;18.33;;;;;;;1.96;77.32;101326.19;7389036;19;20022;-67
2023/12/02 09:32:45;;;;;;;34.38;19.67;;;;;;;1.95;76.33;101325.34;7391316;19;20050;-67
2023/12/02 09:35:13;;;;;;;34.92;18.92;;;;;;;1.95;77.20;101329.72;7391482;19;20022;-66
2023/12/02 09:37:57;;;;;;;36.53;19.40;;;;;;;2.13;78.16;101325.69;7390325;19;20029;-65
2023/12/02 09:40:38;;;;;;;32.90;18.77;;;;;;;2.22;76.49;101325.44;7388219;19;20026;-67
2023/12/02 09:43:44;;;;;;;35.28;18.92;;;;;;;2.19;76.29;101331.59;7391175;19;20025;-66
2023/12/02 09:46:30;;;;;;;33.10;18.75;;;;;;;2.07;76.79;101334.59;7395226;19;20014;-66
2023/12/02 09:49:31;;;;;;;34.00;19.27;;;;;;;2.12;76.72;101327.44;7399803;19;20023;-66
2023/12/02 09:51:58;;;;;;;34.55;18.63;;;;;;;2.03;77.04;101324.28;7398765;19;20035;-67
2023/12/02 09:54:52;;;;;;;30.85;17.98;;;;;;;2.17;76.69;101322.09;7398681;19;20777;-66
2023/12/02 09:57:25;;;;;;;33.05;19.42;;;;;;;2.26;76.42;101327.06;7395143;19;20014;-66
2023/12/02 10:00:12;;;;;;;34.45;18.85;;;;;;;2.25;76.62;101327.09;7395041;19;20038;-66
2023/12/02 10:02:59;;;;;;;32.83;18.17;;;;;;;2.24;76.09;101328.00;7397527;19;20078;-67
2023/12/02 10:05:37;;;;;;;30.55;17.52;;;;;;;2.28;76.33;101330.47;7397951;19;20014;-66
2023/12/02 10:08:48;;;;;;;32.80;18.23;;;;;;;2.41;75.36;101328.34;7398754;19;20014;-66
2023/12/02 10:11:43;;;;;;;34.28;18.70;;;;;;;2.38;75.63;101333.66;7394169;19;20032;-66
2023/12/02 10:14:32;;;;;;;30.60;18.67;;;;;;;2.36;75.80;101327.63;7397575;19;20014;-66
2023/12/02 10:17:02;;;;;;;36.30;20.10;;;;;;;2.46;75.59;101328.22;7397035;19;20125;-66
2023/12/02 10:19:36;;;;;;;33.03;19.02;;;;;;;2.43;75.36;101323.91;7397060;19;20030;-66
2023/12/02 10:22:06;;;;;;;36.90;20.08;;;;;;;2.39;75.09;101324.91;7397401;19;20018;-66
2023/12/02 10:25:05;;;;;;;35.67;20.77;;;;;;;2.41;74.46;101325.75;7397468;19;20029;-66
2023/12/02 10:27:39;;;;;;;38.20;20.55;;;;;;;2.29;74.95;101323.47;7396781;19;20014;-66
2023/12/02 10:30:15;;;;;;;34.63;20.67;;;;;;;2.27;75.18;101333.97;7395691;19;20369;-67
2023/12/02 10:33:08;;;;;;;33.50;19.73;;;;;;;2.44;74.46;101339.56;7397238;19;20038;-66
2023/12/02 10:35:40;;;;;;;33.45;19.63;;;;;;;2.32;74.68;101332.06;7395047;19;20351;-66
2023/12/02 10:38:26;;;;;;;34.22;19.55;;;;;;;2.44;74.46;101339.56;7395135;19;20015;-66
2023/12/02 10:41:29;;;;;;;33.25;18.30;;;;;;;2.32;74.39;101336.44;7392842;19;20039;-66
2023/12/02 10:44:03;;;;;;;34.03;17.95;;;;;;;2.36;74.57;101328.47;7395099;19;20031;-66
2023/12/02 10:46:32;;;;;;;31.10;17.30;;;;;;;2.36;74.75;101330.22;7396400;19;20019;-66
2023/12/02 10:49:01;;;;;;;33.65;19.08;;;;;;;2.44;74.65;101329.13;7396140;19;20110;-66
2023/12/02 10:51:33;;;;;;;29.40;17.13;;;;;;;2.48;73.91;101332.50;7392874;19;20475;-67
2023/12/02 10:54:04;;;;;;;31.92;18.42;;;;;;;2.48;74.18;101337.72;7396165;19;20019;-66
2023/12/02 10:56:36;;;;;;;33.42;18.75;;;;;;;2.51;74.48;101332.38;7393559;19;20026;-66
2023/12/02 10:59:04;;;;;;;28.15;16.65;;;;;;;2.61;74.02;101339.03;7392286;19;20050;-67
2023/12/02 11:01:58;;;;;;;29.25;15.95;;;;;;;2.58;73.27;101336.50;7393501;19;20018;-66
2023/12/02 11:04:38;;;;;;;;;;;;;;;2.41;73.97;101342.28;7395522;19;20033;-67
2023/12/02 11:07:10;;;;;;;28.88;16.42;;;;;;;2.35;74.69;101342.44;7395458;19;19923;-67
2023/12/02 11:09:54;;;;;;;30.42;17.38;;;;;;;2.39;74.08;101337.97;7393874;19;20092;-67
2023/12/02 11:13:03;;;;;;;31.15;17.50;;;;;;;2.43;74.26;101342.22;7395566;19;20089;-66
2023/12/02 11:15:48;;;;;;;30.25;17.42;;;;;;;2.44;74.32;101338.69;7394512;19;20511;-67
2023/12/02 11:18:30;;;;;;;30.42;16.88;;;;;;;2.38;74.33;101339.75;7394135;19;20046;-66
2023/12/02 11:21:04;;;;;;;29.80;17.52;;;;;;;2.48;74.29;101342.94;7393500;19;20014;-66
2023/12/02 11:23:57;;;;;;;31.73;18.13;;;;;;;2.55;74.04;101349.66;7395385;19;20361;-66
2023/12/02 11:26:37;;;;;;;29.30;17.20;;;;;;;2.58;73.68;101344.34;7395341;19;20021;-67
2023/12/02 11:29:39;;;;;;;30.13;17.58;;;;;;;2.51;74.05;101347.22;7393485;19;20089;-67
2023/12/02 11:32:28;;;;;;;31.25;17.58;;;;;;;2.58;73.84;101357.44;7393411;19;20015;-67